Aviation Digital Data Service (ADDS)

Output produced by TAFs form (0828 UTC 23 January 2017)
found at http://aviationweather.gov/adds/tafs/
 
KVEL 230649Z 2307/2406 28003KT 2SM -SN BR BKN027 OVC040 
     FM231100 VRB03KT 2SM -SN OVC010 
     FM231600 27004KT 1SM -SN OVC008 
     FM232000 22005KT P6SM VCSH OVC020 
     FM240200 22004KT P6SM BKN035